Time;durP1;ratioP1;P1;durP2;ratioP2;P2;SDS_P1;SDS_P2;PMS_P1;PMS_P2;Temp;Humidity;BMP_temperature;BMP_pressure;BME280_temperature;BME280_humidity;BME280_pressure;Samples;Min_cycle;Max_cycle;Signal;HPM_P1;HPM_P2
2023/02/18 00:00:56;;;;;;;6.70;1.10;;;7.80;99.90;;;;;;5096114;28;20210;-84
2023/02/18 00:03:23;;;;;;;6.83;1.23;;;7.80;99.90;;;;;;5094436;28;20206;-85
2023/02/18 00:05:52;;;;;;;6.03;1.30;;;7.80;99.90;;;;;;5094927;28;20232;-85
2023/02/18 00:08:19;;;;;;;5.20;1.73;;;7.80;99.90;;;;;;5095443;28;20251;-84
2023/02/18 00:10:46;;;;;;;3.87;1.13;;;7.80;99.90;;;;;;5095865;28;20197;-84
2023/02/18 00:13:13;;;;;;;5.63;1.30;;;7.80;99.90;;;;;;5095544;28;20288;-85
2023/02/18 00:15:40;;;;;;;5.17;1.03;;;7.80;99.90;;;;;;5095545;28;20205;-84
2023/02/18 00:18:07;;;;;;;6.00;1.10;;;7.80;99.90;;;;;;5094371;28;20233;-85
2023/02/18 00:20:35;;;;;;;3.37;0.83;;;7.80;99.90;;;;;;5095046;28;20208;-85
2023/02/18 00:23:03;;;;;;;10.27;1.50;;;7.80;99.90;;;;;;5092421;28;20198;-85
2023/02/18 00:25:30;;;;;;;6.57;1.33;;;7.80;99.90;;;;;;5095854;28;20228;-85
2023/02/18 00:27:56;;;;;;;7.70;1.70;;;7.80;99.90;;;;;;5094822;28;20308;-83
2023/02/18 00:30:23;;;;;;;4.10;1.00;;;7.80;99.90;;;;;;5095950;28;20208;-84
2023/02/18 00:32:50;;;;;;;7.77;1.20;;;7.80;99.90;;;;;;5095484;28;20292;-84
2023/02/18 00:35:17;;;;;;;4.73;1.40;;;7.70;99.90;;;;;;5095316;28;20293;-84
2023/02/18 00:37:44;;;;;;;4.63;1.00;;;7.80;99.90;;;;;;5095372;28;20232;-84
2023/02/18 00:40:13;;;;;;;5.30;1.07;;;7.80;99.90;;;;;;5094979;28;20189;-85
2023/02/18 00:42:39;;;;;;;6.00;1.50;;;7.80;99.90;;;;;;5094322;28;20215;-84
2023/02/18 00:45:07;;;;;;;5.10;0.90;;;7.80;99.90;;;;;;5095133;28;20221;-84
2023/02/18 00:47:34;;;;;;;3.40;0.83;;;7.80;99.90;;;;;;5095557;28;20233;-85
2023/02/18 00:50:01;;;;;;;7.93;1.20;;;7.80;99.90;;;;;;5095434;28;20190;-85
2023/02/18 00:52:27;;;;;;;5.77;0.73;;;7.90;99.90;;;;;;5094932;28;20218;-84
2023/02/18 00:54:54;;;;;;;5.20;1.43;;;8.00;99.90;;;;;;5094623;28;20197;-84
2023/02/18 00:57:23;;;;;;;6.37;1.67;;;8.00;99.90;;;;;;5095403;28;20693;-85
2023/02/18 00:59:49;;;;;;;9.97;1.43;;;7.90;99.90;;;;;;5095212;28;20212;-84
2023/02/18 01:02:16;;;;;;;6.77;0.90;;;7.90;99.90;;;;;;5095014;28;20224;-84
2023/02/18 01:04:43;;;;;;;6.90;1.30;;;7.90;99.90;;;;;;5095018;28;20212;-84
2023/02/18 01:07:10;;;;;;;6.47;1.00;;;7.90;99.90;;;;;;5094142;28;20221;-84
2023/02/18 01:09:37;;;;;;;2.87;0.73;;;7.90;99.90;;;;;;5094760;28;20200;-84
2023/02/18 01:12:05;;;;;;;3.83;0.97;;;8.00;60.50;;;;;;5094230;28;20208;-85
2023/02/18 01:14:33;;;;;;;3.67;0.93;;;8.00;99.90;;;;;;5094644;28;20208;-84
2023/02/18 01:17:00;;;;;;;6.10;1.17;;;7.90;99.90;;;;;;5094024;28;20701;-84
2023/02/18 01:19:26;;;;;;;6.93;1.77;;;8.10;99.90;;;;;;5095069;28;20215;-84
2023/02/18 01:21:53;;;;;;;7.43;1.57;;;8.00;99.90;;;;;;5094333;28;20322;-85
2023/02/18 01:24:20;;;;;;;4.43;0.80;;;7.90;99.90;;;;;;5094704;28;20202;-83
2023/02/18 01:26:47;;;;;;;6.97;1.13;;;8.00;99.90;;;;;;5095012;28;20229;-84
2023/02/18 01:29:14;;;;;;;3.83;1.33;;;8.00;99.90;;;;;;5094541;28;20236;-85
2023/02/18 01:31:42;;;;;;;4.37;1.33;;;8.10;99.90;;;;;;5094503;28;20204;-84
2023/02/18 01:34:09;;;;;;;6.30;1.10;;;8.30;99.90;;;;;;5094922;28;20198;-85
2023/02/18 01:36:36;;;;;;;7.47;1.40;;;8.10;99.90;;;;;;5094286;28;20218;-85
2023/02/18 01:39:04;;;;;;;5.67;0.90;;;8.10;99.90;;;;;;5094048;28;20201;-84
2023/02/18 01:41:31;;;;;;;5.33;1.17;;;8.20;99.90;;;;;;5094811;28;20208;-84
2023/02/18 01:44:12;;;;;;;5.47;1.20;;;8.20;99.90;;;;;;5094707;28;20658;-85
2023/02/18 01:46:39;;;;;;;5.83;1.47;;;8.20;99.90;;;;;;5094275;28;20519;-85
2023/02/18 01:49:07;;;;;;;10.00;1.80;;;8.20;99.90;;;;;;5094501;28;20202;-85
2023/02/18 01:51:37;;;;;;;6.23;1.47;;;8.20;99.90;;;;;;5093555;28;20210;-85
2023/02/18 01:54:08;;;;;;;5.77;1.10;;;8.20;99.90;;;;;;5094493;28;20205;-84
2023/02/18 01:56:38;;;;;;;6.83;1.93;;;8.30;99.90;;;;;;5094559;28;20312;-85
2023/02/18 01:59:07;;;;;;;6.60;1.27;;;8.30;99.90;;;;;;5094796;28;20261;-86
2023/02/18 02:01:35;;;;;;;6.67;1.07;;;8.30;99.90;;;;;;5095388;28;20212;-84
2023/02/18 02:04:02;;;;;;;10.50;1.70;;;8.20;99.90;;;;;;5090169;28;20669;-84
2023/02/18 02:06:30;;;;;;;5.20;1.53;;;8.20;99.90;;;;;;5103869;28;20228;-85
2023/02/18 02:09:01;;;;;;;6.70;1.30;;;8.30;99.90;;;;;;5090598;28;20258;-84
2023/02/18 02:11:48;;;;;;;9.07;1.67;;;8.30;99.90;;;;;;5083281;28;20227;-85
2023/02/18 02:14:28;;;;;;;6.17;1.00;;;8.20;99.90;;;;;;5077620;28;20198;-84
2023/02/18 02:17:04;;;;;;;7.70;1.37;;;8.30;99.90;;;;;;5079401;28;20249;-84
2023/02/18 02:20:06;;;;;;;8.43;1.23;;;8.30;99.90;;;;;;5072572;28;20204;-82
2023/02/18 02:23:25;;;;;;;4.80;1.57;;;8.30;99.90;;;;;;5073468;28;20224;-83
2023/02/18 02:26:16;;;;;;;8.03;1.90;;;8.30;99.90;;;;;;5010783;28;20292;-84
2023/02/18 02:29:12;;;;;;;7.47;1.50;;;8.30;99.90;;;;;;5069160;28;20594;-85
2023/02/18 02:32:05;;;;;;;6.60;1.57;;;8.20;99.90;;;;;;5077593;28;20206;-84
2023/02/18 02:34:50;;;;;;;9.93;1.90;;;8.20;99.90;;;;;;5077498;28;20200;-84
2023/02/18 02:37:25;;;;;;;8.03;2.77;;;8.10;99.90;;;;;;5076811;28;20218;-84
2023/02/18 02:40:03;;;;;;;8.47;1.90;;;8.10;99.90;;;;;;5076027;28;20265;-84
2023/02/18 02:42:45;;;;;;;14.73;2.40;;;8.00;99.90;;;;;;5076464;28;20210;-85
2023/02/18 02:45:18;;;;;;;9.37;2.17;;;7.90;99.90;;;;;;5076802;28;20221;-84
2023/02/18 02:47:51;;;;;;;9.33;2.50;;;7.80;99.90;;;;;;5076033;28;20218;-84
2023/02/18 02:50:24;;;;;;;13.07;3.13;;;7.90;99.90;;;;;;5076625;28;20199;-85
2023/02/18 02:52:54;;;;;;;6.23;2.73;;;7.80;99.90;;;;;;5076167;28;20194;-83
2023/02/18 02:55:21;;;;;;;11.27;2.97;;;7.80;99.90;;;;;;5081306;28;20209;-84
2023/02/18 02:57:53;;;;;;;13.37;3.33;;;7.80;99.90;;;;;;5076164;28;20678;-84
2023/02/18 03:00:23;;;;;;;9.40;3.27;;;7.80;99.90;;;;;;5075810;28;20203;-85
2023/02/18 03:03:05;;;;;;;16.20;3.37;;;7.80;99.90;;;;;;5076593;28;20555;-85
2023/02/18 03:05:46;;;;;;;10.40;3.43;;;7.90;99.90;;;;;;5075395;28;20283;-85
2023/02/18 03:08:29;;;;;;;14.10;3.60;;;7.90;99.90;;;;;;5075880;28;20230;-84
2023/02/18 03:11:03;;;;;;;14.67;3.60;;;7.90;99.90;;;;;;5075497;28;20206;-85
2023/02/18 03:13:42;;;;;;;11.87;3.63;;;7.90;99.90;;;;;;5082871;28;20288;-84
2023/02/18 03:16:20;;;;;;;11.47;4.20;;;7.90;99.90;;;;;;5096389;28;20255;-85
2023/02/18 03:18:51;;;;;;;12.50;4.47;;;8.00;99.90;;;;;;5094944;28;20566;-84
2023/02/18 03:21:26;;;;;;;11.00;4.53;;;8.00;99.90;;;;;;5096139;28;20209;-83
2023/02/18 03:23:56;;;;;;;13.40;4.87;;;8.00;99.90;;;;;;5094162;28;20174;-84
2023/02/18 03:26:25;;;;;;;17.67;7.07;;;8.00;99.90;;;;;;5096086;28;20222;-84
2023/02/18 03:28:55;;;;;;;17.13;5.83;;;8.10;99.90;;;;;;5095170;28;20205;-85
2023/02/18 03:31:25;;;;;;;14.80;7.03;;;8.10;99.90;;;;;;5095597;28;20277;-85
2023/02/18 03:33:56;;;;;;;16.60;6.33;;;8.10;99.90;;;;;;5093502;28;20205;-85
2023/02/18 03:36:25;;;;;;;18.90;6.93;;;8.10;99.90;;;;;;5094856;28;20232;-84
2023/02/18 03:38:59;;;;;;;21.23;8.27;;;8.20;99.90;;;;;;5096096;28;20209;-85
2023/02/18 03:41:25;;;;;;;14.73;7.20;;;8.10;99.90;;;;;;5094069;28;20560;-84
2023/02/18 03:43:54;;;;;;;17.20;7.87;;;8.10;99.90;;;;;;5091438;28;20202;-85
2023/02/18 03:46:21;;;;;;;19.33;8.47;;;8.20;99.90;;;;;;5074960;28;20256;-84
2023/02/18 03:48:47;;;;;;;17.00;9.03;;;8.20;99.90;;;;;;5074219;28;20204;-84
2023/02/18 03:51:14;;;;;;;21.27;9.23;;;8.20;99.90;;;;;;5074986;28;20230;-85
2023/02/18 03:53:42;;;;;;;20.50;9.23;;;8.20;99.90;;;;;;5074468;28;20206;-84
2023/02/18 03:56:09;;;;;;;18.23;8.17;;;8.20;99.90;;;;;;5075018;28;20210;-85
2023/02/18 03:58:36;;;;;;;22.67;9.83;;;8.10;99.90;;;;;;5075192;28;20212;-85
2023/02/18 04:01:03;;;;;;;16.63;8.30;;;8.20;99.90;;;;;;5075095;28;20194;-85
2023/02/18 04:03:30;;;;;;;23.93;10.30;;;8.20;99.90;;;;;;5073152;28;20558;-85
2023/02/18 04:05:57;;;;;;;20.97;9.40;;;8.10;99.90;;;;;;5074437;28;20225;-84
2023/02/18 04:08:24;;;;;;;21.30;9.07;;;8.10;99.90;;;;;;5075190;28;20230;-85
2023/02/18 04:10:52;;;;;;;20.67;9.00;;;8.10;99.90;;;;;;5074907;28;20210;-84
2023/02/18 04:13:19;;;;;;;20.50;9.07;;;8.10;99.90;;;;;;5074717;28;20203;-84
2023/02/18 04:15:48;;;;;;;22.00;9.07;;;8.10;99.90;;;;;;5075019;28;20209;-84
2023/02/18 04:18:15;;;;;;;20.20;8.53;;;8.10;99.90;;;;;;5075805;28;20761;-83
2023/02/18 04:20:42;;;;;;;23.77;9.30;;;8.20;99.90;;;;;;5074228;28;20203;-85
2023/02/18 04:23:09;;;;;;;21.00;9.60;;;8.20;99.90;;;;;;5074967;28;20218;-84
2023/02/18 04:25:36;;;;;;;19.27;9.23;;;8.20;99.90;;;;;;5081688;28;20193;-84
2023/02/18 04:28:05;;;;;;;21.83;10.77;;;8.20;99.90;;;;;;5096757;28;20237;-85
2023/02/18 04:30:32;;;;;;;25.37;10.27;;;8.10;99.90;;;;;;5094985;28;20206;-84
2023/02/18 04:32:58;;;;;;;25.10;10.93;;;8.00;99.90;;;;;;5096423;28;20209;-85
2023/02/18 04:35:25;;;;;;;23.60;11.07;;;8.00;99.90;;;;;;5095673;28;20215;-85
2023/02/18 04:37:52;;;;;;;20.50;10.17;;;7.90;99.90;;;;;;5096017;28;20217;-84
2023/02/18 04:40:19;;;;;;;24.87;10.87;;;7.90;99.90;;;;;;5096045;28;20197;-85
2023/02/18 04:42:46;;;;;;;26.60;11.47;;;7.80;99.90;;;;;;5089233;28;20195;-85
2023/02/18 04:45:14;;;;;;;26.80;11.70;;;7.80;99.90;;;;;;5090833;28;20220;-84
2023/02/18 04:47:41;;;;;;;28.30;11.43;;;7.90;99.90;;;;;;5093201;28;20757;-84
2023/02/18 04:50:09;;;;;;;28.87;11.77;;;7.70;99.90;;;;;;5077786;28;20616;-84
2023/02/18 04:52:36;;;;;;;25.37;11.50;;;7.70;99.90;;;;;;5078986;28;20568;-83
2023/02/18 04:55:03;;;;;;;26.07;12.63;;;7.70;99.90;;;;;;5080007;28;20206;-83
2023/02/18 04:57:29;;;;;;;22.50;11.23;;;7.80;99.90;;;;;;5078651;28;20768;-82
2023/02/18 04:59:56;;;;;;;24.40;11.30;;;7.60;99.90;;;;;;5090754;28;20536;-85
2023/02/18 05:02:25;;;;;;;24.63;12.00;;;7.60;99.90;;;;;;5094618;28;20190;-83
2023/02/18 05:04:51;;;;;;;23.17;11.63;;;7.60;99.90;;;;;;5099162;28;20316;-82
2023/02/18 05:07:18;;;;;;;25.20;12.17;;;7.50;99.90;;;;;;5099622;28;20226;-81
2023/02/18 05:09:45;;;;;;;21.40;11.43;;;7.50;99.90;;;;;;5078686;28;20216;-82
2023/02/18 05:12:12;;;;;;;21.87;11.33;;;7.50;99.90;;;;;;5078452;28;20190;-84
2023/02/18 05:14:39;;;;;;;23.03;11.30;;;7.40;99.90;;;;;;5094057;28;20581;-82
2023/02/18 05:17:05;;;;;;;24.57;10.80;;;7.40;99.90;;;;;;5107382;28;20304;-82
2023/02/18 05:19:35;;;;;;;26.03;11.03;;;7.40;99.90;;;;;;5095239;28;20604;-79
2023/02/18 05:22:02;;;;;;;26.03;11.63;;;7.30;99.90;;;;;;5092780;28;20197;-83
2023/02/18 05:24:29;;;;;;;24.17;11.57;;;7.40;99.90;;;;;;5101971;28;20201;-81
2023/02/18 05:26:56;;;;;;;23.77;12.47;;;7.30;99.90;;;;;;5099367;28;20227;-82
2023/02/18 05:29:24;;;;;;;23.30;11.63;;;7.40;99.90;;;;;;5098746;28;20233;-82
2023/02/18 05:31:53;;;;;;;24.60;12.00;;;7.40;99.90;;;;;;5101388;28;20246;-82
2023/02/18 05:34:20;;;;;;;66.47;38.20;;;7.30;99.90;;;;;;5101007;28;20210;-81
2023/02/18 05:36:48;;;;;;;29.07;14.73;;;7.30;99.90;;;;;;5091183;28;20214;-82
2023/02/18 05:39:15;;;;;;;28.17;13.30;;;7.30;99.90;;;;;;5092329;28;20206;-83
2023/02/18 05:41:42;;;;;;;23.80;12.40;;;7.30;99.90;;;;;;5099581;28;20205;-81
2023/02/18 05:46:54;;;;;;;26.40;13.70;;;7.30;99.90;;;;;;5095918;28;20603;-83
2023/02/18 05:49:21;;;;;;;26.67;13.87;;;7.40;99.90;;;;;;5090676;28;20209;-84
2023/02/18 05:51:50;;;;;;;28.23;14.33;;;7.30;99.90;;;;;;5097067;28;20205;-79
2023/02/18 05:54:17;;;;;;;32.43;14.17;;;7.30;99.90;;;;;;5104769;28;20546;-82
2023/02/18 05:56:44;;;;;;;26.33;12.93;;;7.30;99.90;;;;;;5099992;28;20214;-83
2023/02/18 05:59:11;;;;;;;27.77;12.90;;;7.30;99.90;;;;;;5096852;28;20204;-83
2023/02/18 06:01:41;;;;;;;24.77;13.67;;;7.30;99.90;;;;;;5096641;28;20206;-83
2023/02/18 06:04:08;;;;;;;29.87;13.80;;;7.30;99.90;;;;;;5105369;28;20201;-82
2023/02/18 06:06:36;;;;;;;25.73;12.63;;;7.20;99.90;;;;;;5091284;28;20236;-81
2023/02/18 06:09:06;;;;;;;23.03;12.43;;;7.20;99.90;;;;;;5109757;28;20197;-81
2023/02/18 06:11:34;;;;;;;27.73;12.80;;;7.30;99.90;;;;;;5107187;28;20261;-83
2023/02/18 06:14:01;;;;;;;26.43;13.20;;;7.20;99.90;;;;;;5105073;28;20195;-83
2023/02/18 06:16:29;;;;;;;29.40;13.67;;;7.20;99.90;;;;;;5101670;28;21285;-83
2023/02/18 06:18:56;;;;;;;26.83;13.00;;;7.20;99.90;;;;;;5099504;28;20228;-83
2023/02/18 06:21:23;;;;;;;29.60;14.93;;;7.20;99.90;;;;;;5088910;28;20635;-84
2023/02/18 06:23:50;;;;;;;27.03;13.53;;;7.20;99.90;;;;;;5092376;28;20555;-81
2023/02/18 06:26:18;;;;;;;28.73;13.53;;;7.20;99.90;;;;;;5095828;28;20204;-83
2023/02/18 06:28:45;;;;;;;29.10;14.63;;;7.20;99.90;;;;;;5107169;28;20201;-83
2023/02/18 06:31:12;;;;;;;31.17;15.80;;;7.20;99.90;;;;;;5096584;28;20229;-81
2023/02/18 06:33:39;;;;;;;28.27;14.03;;;7.30;99.90;;;;;;5094949;28;20210;-82
2023/02/18 06:36:10;;;;;;;24.97;12.80;;;7.40;99.90;;;;;;5096837;28;20198;-84
2023/02/18 06:38:38;;;;;;;25.30;13.77;;;7.40;99.90;;;;;;5095967;28;20569;-81
2023/02/18 06:41:05;;;;;;;23.70;12.23;;;7.50;99.90;;;;;;5088992;28;20194;-81
2023/02/18 06:43:34;;;;;;;23.90;12.57;;;7.50;99.90;;;;;;5090042;28;20205;-83
2023/02/18 06:46:02;;;;;;;21.77;11.67;;;7.50;99.90;;;;;;5099454;28;20194;-81
2023/02/18 06:48:29;;;;;;;24.83;11.37;;;7.50;99.90;;;;;;5094541;28;20528;-85
2023/02/18 06:50:56;;;;;;;23.23;11.00;;;7.50;99.90;;;;;;5088557;28;20298;-83
2023/02/18 06:53:22;;;;;;;19.67;10.07;;;7.60;99.90;;;;;;5094060;28;20225;-84
2023/02/18 06:55:50;;;;;;;22.33;11.73;;;7.70;99.90;;;;;;5100695;28;20205;-83
2023/02/18 06:58:17;;;;;;;21.80;10.17;;;7.60;99.90;;;;;;5092674;28;20218;-84
2023/02/18 07:00:45;;;;;;;20.67;10.23;;;7.70;99.90;;;;;;5093319;28;20205;-84
2023/02/18 07:03:13;;;;;;;22.17;11.03;;;7.70;99.90;;;;;;5097012;28;20204;-84
2023/02/18 07:05:40;;;;;;;22.63;11.37;;;7.70;99.90;;;;;;5095031;28;20206;-86
2023/02/18 07:08:07;;;;;;;19.17;10.50;;;7.70;99.90;;;;;;5098016;28;20217;-85
2023/02/18 07:10:33;;;;;;;19.23;9.73;;;7.80;99.90;;;;;;5097686;28;20205;-85
2023/02/18 07:13:00;;;;;;;17.70;8.80;;;7.80;99.90;;;;;;5098399;28;20198;-85
2023/02/18 07:15:27;;;;;;;19.00;9.83;;;7.80;99.90;;;;;;5094618;28;20685;-84
2023/02/18 07:17:56;;;;;;;19.70;9.53;;;7.80;99.90;;;;;;5094769;28;20224;-85
2023/02/18 07:20:23;;;;;;;19.67;9.63;;;7.80;99.90;;;;;;5096050;28;20206;-86
2023/02/18 07:22:50;;;;;;;16.77;8.17;;;7.90;99.90;;;;;;5100721;28;20241;-85
2023/02/18 07:25:17;;;;;;;17.33;8.23;;;7.90;99.90;;;;;;5087807;28;20202;-85
2023/02/18 07:27:44;;;;;;;16.73;7.67;;;7.90;99.90;;;;;;5091923;28;20223;-85
2023/02/18 07:30:12;;;;;;;14.00;7.30;;;8.00;99.90;;;;;;5099077;28;20474;-85
2023/02/18 07:32:39;;;;;;;16.07;7.60;;;8.10;99.90;;;;;;5091390;28;20238;-85
2023/02/18 07:35:08;;;;;;;14.43;6.83;;;8.40;99.90;;;;;;5105473;28;20189;-83
2023/02/18 07:37:45;;;;;;;14.93;7.50;;;8.40;99.90;;;;;;5090172;28;20275;-85
2023/02/18 07:40:14;;;;;;;15.47;6.93;;;8.50;99.90;;;;;;5094614;28;20274;-85
2023/02/18 07:42:41;;;;;;;13.13;5.90;;;8.70;99.90;;;;;;5100864;28;20208;-85
2023/02/18 07:45:09;;;;;;;14.13;6.00;;;8.70;99.90;;;;;;5099223;28;20209;-86
2023/02/18 07:47:37;;;;;;;13.10;6.70;;;8.80;99.90;;;;;;5098509;28;20274;-86
2023/02/18 07:50:04;;;;;;;12.87;6.30;;;8.80;99.90;;;;;;5085870;28;20232;-85
2023/02/18 07:52:32;;;;;;;14.20;6.43;;;8.80;99.90;;;;;;5099716;28;20222;-85
2023/02/18 07:54:59;;;;;;;12.20;6.03;;;8.90;99.90;;;;;;5085574;28;20198;-85
2023/02/18 07:57:26;;;;;;;12.30;6.13;;;8.90;99.90;;;;;;5093257;28;20229;-84
2023/02/18 07:59:53;;;;;;;10.63;5.37;;;9.10;99.90;;;;;;5103892;28;20198;-83
2023/02/18 08:02:22;;;;;;;10.97;5.97;;;9.00;99.90;;;;;;5085185;28;20210;-84
2023/02/18 08:04:49;;;;;;;9.10;4.77;;;9.00;99.90;;;;;;5090802;28;20201;-86
2023/02/18 08:07:19;;;;;;;11.00;5.57;;;9.00;99.90;;;;;;5101884;28;20225;-85
2023/02/18 08:09:47;;;;;;;8.73;4.83;;;9.10;99.90;;;;;;5104308;28;20220;-85
2023/02/18 08:12:14;;;;;;;8.13;4.23;;;9.10;99.90;;;;;;5106789;28;20288;-85
2023/02/18 08:14:41;;;;;;;9.83;4.80;;;9.10;99.90;;;;;;5093998;28;20213;-85
2023/02/18 08:17:08;;;;;;;6.90;3.03;;;9.20;99.90;;;;;;5087473;28;20217;-84
2023/02/18 08:19:35;;;;;;;5.13;2.80;;;9.30;99.90;;;;;;5097923;28;20304;-84
2023/02/18 08:22:02;;;;;;;2.07;1.67;;;9.40;99.90;;;;;;5095376;28;20205;-83
2023/02/18 08:24:29;;;;;;;2.53;1.77;;;9.40;99.90;;;;;;5095838;28;20194;-84
2023/02/18 08:26:57;;;;;;;2.47;0.90;;;9.50;99.90;;;;;;5097384;28;20220;-82
2023/02/18 08:29:24;;;;;;;1.30;0.93;;;9.60;99.90;;;;;;5097887;28;20209;-83
2023/02/18 08:31:53;;;;;;;1.40;1.00;;;9.70;99.90;;;;;;5098586;28;20204;-83
2023/02/18 08:34:19;;;;;;;1.03;0.93;;;9.70;99.90;;;;;;5096019;28;20599;-84
2023/02/18 08:36:46;;;;;;;1.30;0.80;;;9.80;99.90;;;;;;5091809;28;20305;-85
2023/02/18 08:39:13;;;;;;;0.97;0.70;;;9.80;99.90;;;;;;5090173;28;20206;-83
2023/02/18 08:41:40;;;;;;;1.13;0.93;;;9.80;99.90;;;;;;5099999;28;20198;-83
2023/02/18 08:44:08;;;;;;;1.17;1.03;;;9.90;99.90;;;;;;5102238;28;20204;-84
2023/02/18 08:46:35;;;;;;;1.20;0.80;;;10.00;99.90;;;;;;5100922;28;20222;-86
2023/02/18 08:49:02;;;;;;;1.10;0.90;;;10.00;99.90;;;;;;5087788;28;20224;-86
2023/02/18 08:51:28;;;;;;;1.10;0.80;;;10.00;99.90;;;;;;5096693;28;20219;-84
2023/02/18 08:53:55;;;;;;;1.10;1.00;;;10.10;99.90;;;;;;5101003;28;20197;-83
2023/02/18 08:56:22;;;;;;;1.10;1.00;;;10.00;99.90;;;;;;5116082;28;20577;-83
2023/02/18 08:58:49;;;;;;;0.83;0.83;;;10.10;99.90;;;;;;5090625;28;20202;-84
2023/02/18 09:01:17;;;;;;;0.90;0.87;;;10.00;99.90;;;;;;5087486;28;20206;-84
2023/02/18 09:03:44;;;;;;;1.10;1.00;;;10.10;99.90;;;;;;5083817;28;20562;-82
2023/02/18 09:06:12;;;;;;;1.80;1.50;;;10.20;99.90;;;;;;5091224;28;20208;-83
2023/02/18 09:08:38;;;;;;;0.70;0.70;;;10.20;99.90;;;;;;5091657;28;20218;-84
2023/02/18 09:11:06;;;;;;;1.20;1.10;;;10.20;99.90;;;;;;5092087;28;20204;-84
2023/02/18 09:13:33;;;;;;;1.67;1.30;;;10.20;99.90;;;;;;5090559;28;20210;-84
2023/02/18 09:16:03;;;;;;;1.20;1.10;;;10.30;99.90;;;;;;5095872;28;20204;-86
2023/02/18 09:18:32;;;;;;;1.00;1.00;;;10.40;99.90;;;;;;5111431;28;20247;-84
2023/02/18 09:20:59;;;;;;;1.10;1.00;;;10.40;99.90;;;;;;5089865;28;20198;-86
2023/02/18 09:23:30;;;;;;;0.80;0.80;;;10.50;99.90;;;;;;5088415;28;20197;-86
2023/02/18 09:25:57;;;;;;;1.20;1.10;;;10.50;99.90;;;;;;5093976;28;20225;-85
2023/02/18 09:28:24;;;;;;;0.90;0.90;;;10.50;99.90;;;;;;5085419;28;20218;-84
2023/02/18 09:30:51;;;;;;;1.17;1.03;;;10.50;99.90;;;;;;5081073;28;20212;-84
2023/02/18 09:33:19;;;;;;;1.40;1.20;;;10.60;99.90;;;;;;5096570;28;20210;-84
2023/02/18 09:35:47;;;;;;;1.93;1.27;;;10.60;99.90;;;;;;5096789;28;20222;-85
2023/02/18 09:38:16;;;;;;;1.00;1.00;;;10.70;99.90;;;;;;5095826;28;20238;-85
2023/02/18 09:40:46;;;;;;;0.87;0.77;;;10.70;99.90;;;;;;5100588;28;20645;-86
2023/02/18 09:43:21;;;;;;;0.90;0.70;;;10.70;99.90;;;;;;5096153;28;20680;-84
2023/02/18 09:45:49;;;;;;;0.70;0.70;;;10.70;99.90;;;;;;5093002;28;20204;-85
2023/02/18 09:48:16;;;;;;;1.20;1.10;;;10.80;99.90;;;;;;5094365;28;20227;-85
2023/02/18 09:50:54;;;;;;;2.20;1.60;;;10.80;99.90;;;;;;5105024;28;20209;-85
2023/02/18 09:53:23;;;;;;;2.43;1.87;;;10.80;99.90;;;;;;5092131;28;20198;-87
2023/02/18 09:55:52;;;;;;;2.33;2.13;;;10.80;99.90;;;;;;5083338;28;20194;-86
2023/02/18 09:58:21;;;;;;;2.40;2.00;;;10.80;99.90;;;;;;5091674;28;20236;-86
2023/02/18 10:00:51;;;;;;;1.63;1.33;;;10.80;99.90;;;;;;5082223;28;20193;-86
2023/02/18 10:03:21;;;;;;;1.90;1.80;;;10.80;99.90;;;;;;5103429;28;20225;-85
2023/02/18 10:05:56;;;;;;;1.80;1.60;;;10.80;99.90;;;;;;5088942;28;20257;-87
2023/02/18 10:08:26;;;;;;;2.20;2.00;;;10.90;99.90;;;;;;5079974;28;20225;-86
2023/02/18 10:10:53;;;;;;;2.00;1.90;;;10.90;99.90;;;;;;5105507;28;20206;-85
2023/02/18 10:13:21;;;;;;;2.30;2.10;;;10.90;99.90;;;;;;5094324;28;20225;-88
2023/02/18 10:15:50;;;;;;;2.10;1.90;;;11.00;99.90;;;;;;5096889;28;20708;-83
2023/02/18 10:18:28;;;;;;;2.30;2.07;;;11.00;99.90;;;;;;5101360;28;20217;-86
2023/02/18 10:21:05;;;;;;;2.10;1.90;;;11.00;99.90;;;;;;5096596;28;20209;-86
2023/02/18 10:23:35;;;;;;;2.57;2.07;;;10.90;99.90;;;;;;5098516;28;20208;-84
2023/02/18 10:26:04;;;;;;;2.87;2.40;;;11.00;99.90;;;;;;5102304;28;20662;-86
2023/02/18 10:28:32;;;;;;;2.50;2.30;;;11.20;99.90;;;;;;5090568;28;20224;-86
2023/02/18 10:31:03;;;;;;;2.50;2.30;;;11.30;99.90;;;;;;5105325;28;20198;-84
2023/02/18 10:33:36;;;;;;;2.27;2.07;;;11.30;99.90;;;;;;5110737;28;20205;-83
2023/02/18 10:36:23;;;;;;;2.40;2.20;;;11.30;99.90;;;;;;5092062;28;20204;-84
2023/02/18 10:39:16;;;;;;;2.47;2.13;;;11.30;99.90;;;;;;5085138;28;20190;-83
2023/02/18 10:41:53;;;;;;;2.27;2.07;;;11.20;99.90;;;;;;5088761;28;20260;-84
2023/02/18 10:44:35;;;;;;;2.47;2.27;;;11.20;99.90;;;;;;5095792;28;20205;-84
2023/02/18 10:47:14;;;;;;;2.73;2.30;;;11.20;99.90;;;;;;5104599;28;20218;-83
2023/02/18 10:49:57;;;;;;;2.30;2.10;;;11.20;99.90;;;;;;5099780;28;20247;-86
2023/02/18 10:52:27;;;;;;;2.40;2.20;;;11.10;99.90;;;;;;5093797;28;20213;-85
2023/02/18 10:54:59;;;;;;;2.83;2.50;;;11.10;99.90;;;;;;5104707;28;20301;-86
2023/02/18 10:57:27;;;;;;;2.57;2.30;;;11.00;99.90;;;;;;5099902;28;20228;-85
2023/02/18 11:00:01;;;;;;;2.33;2.13;;;10.90;99.90;;;;;;5102613;28;20193;-85
2023/02/18 11:02:31;;;;;;;3.67;2.50;;;10.80;99.90;;;;;;5086099;28;20572;-83
2023/02/18 11:05:01;;;;;;;3.80;2.70;;;10.80;99.90;;;;;;5104820;28;20197;-83
2023/02/18 11:07:34;;;;;;;3.30;2.90;;;10.80;99.90;;;;;;5100237;28;20257;-83
2023/02/18 11:10:09;;;;;;;3.00;2.70;;;10.80;99.90;;;;;;5097503;28;20214;-85
2023/02/18 11:12:45;;;;;;;3.77;2.70;;;10.90;99.90;;;;;;5103023;28;20202;-83
2023/02/18 11:15:20;;;;;;;3.50;3.20;;;10.90;99.90;;;;;;5092732;28;20216;-84
2023/02/18 11:17:48;;;;;;;3.27;2.63;;;10.90;99.90;;;;;;5098263;28;20976;-82
2023/02/18 11:20:33;;;;;;;3.43;3.10;;;10.90;99.90;;;;;;5093636;28;20202;-84
2023/02/18 11:23:17;;;;;;;4.93;4.00;;;10.90;99.90;;;;;;5106627;28;20197;-84
2023/02/18 11:25:55;;;;;;;5.77;3.90;;;10.90;99.90;;;;;;5102624;28;20223;-84
2023/02/18 11:28:44;;;;;;;6.63;4.37;;;10.90;99.90;;;;;;5098870;28;20226;-82
2023/02/18 11:31:16;;;;;;;7.43;4.50;;;10.90;99.90;;;;;;5097441;28;20269;-84
2023/02/18 11:33:47;;;;;;;6.13;4.00;;;11.00;99.90;;;;;;5099185;28;20247;-82
2023/02/18 11:36:22;;;;;;;4.43;3.50;;;11.00;99.90;;;;;;5090699;28;20232;-83
2023/02/18 11:38:56;;;;;;;4.53;3.50;;;10.90;99.90;;;;;;5105811;28;20258;-81
2023/02/18 11:41:31;;;;;;;3.77;3.40;;;10.90;99.90;;;;;;5097653;28;20202;-84
2023/02/18 11:43:59;;;;;;;3.63;3.10;;;10.90;99.90;;;;;;5100859;28;20198;-83
2023/02/18 11:46:28;;;;;;;3.27;2.97;;;10.80;99.90;;;;;;5100779;28;20284;-82
2023/02/18 11:48:56;;;;;;;3.23;2.93;;;10.80;99.90;;;;;;5096172;28;20263;-83
2023/02/18 11:51:27;;;;;;;3.40;2.70;;;10.80;99.90;;;;;;5103395;28;20217;-83
2023/02/18 11:54:02;;;;;;;2.77;2.20;;;10.80;99.90;;;;;;5097343;28;20197;-82
2023/02/18 11:56:42;;;;;;;2.03;1.83;;;10.90;99.90;;;;;;5098650;28;20229;-82
2023/02/18 11:59:15;;;;;;;2.23;2.03;;;11.00;99.90;;;;;;5101046;28;20205;-82
2023/02/18 12:01:47;;;;;;;2.57;2.20;;;10.90;99.90;;;;;;5099976;28;20221;-83
2023/02/18 12:04:17;;;;;;;2.10;1.93;;;10.90;99.90;;;;;;5103510;28;20198;-83
2023/02/18 12:06:51;;;;;;;2.23;2.03;;;10.90;99.90;;;;;;5102693;28;20256;-83
2023/02/18 12:09:26;;;;;;;2.30;2.10;;;10.90;99.90;;;;;;5091945;28;20221;-85
2023/02/18 12:11:56;;;;;;;2.97;1.60;;;10.80;99.90;;;;;;5091409;28;20219;-84
2023/02/18 12:14:24;;;;;;;2.40;2.00;;;10.80;99.90;;;;;;5090059;28;21016;-85
2023/02/18 12:17:20;;;;;;;1.97;1.87;;;10.80;99.90;;;;;;5101227;28;20221;-85
2023/02/18 12:20:13;;;;;;;4.53;2.00;;;10.80;99.90;;;;;;5100386;28;20205;-86
2023/02/18 12:22:43;;;;;;;2.07;1.73;;;10.80;99.90;;;;;;5109573;28;20208;-86
2023/02/18 12:25:31;;;;;;;1.87;1.30;;;10.80;99.90;;;;;;5096734;28;20205;-86
2023/02/18 12:28:14;;;;;;;1.60;1.47;;;10.80;99.90;;;;;;5092983;28;20284;-84
2023/02/18 12:31:15;;;;;;;1.53;1.20;;;10.70;99.90;;;;;;5110121;28;20605;-86
2023/02/18 12:33:54;;;;;;;1.70;1.47;;;10.70;99.90;;;;;;5073766;28;20202;-86
2023/02/18 12:36:31;;;;;;;1.30;1.20;;;10.70;99.90;;;;;;5092190;28;20223;-86
2023/02/18 12:39:17;;;;;;;1.70;1.40;;;10.70;99.90;;;;;;5097383;28;20657;-85
2023/02/18 12:42:01;;;;;;;2.80;1.20;;;10.70;99.90;;;;;;5101844;28;20300;-85
2023/02/18 12:44:43;;;;;;;1.30;1.20;;;10.70;99.90;;;;;;5099522;28;20726;-85
2023/02/18 12:47:42;;;;;;;1.20;1.10;;;10.60;99.90;;;;;;5106423;28;20629;-85
2023/02/18 12:50:48;;;;;;;0.97;0.97;;;10.60;99.90;;;;;;5100334;28;20257;-85
2023/02/18 12:53:41;;;;;;;1.20;1.10;;;10.60;99.90;;;;;;5107609;28;20215;-86
2023/02/18 12:56:38;;;;;;;1.00;0.70;;;10.50;99.90;;;;;;5081624;28;20208;-85
2023/02/18 12:59:14;;;;;;;1.93;1.07;;;10.60;99.90;;;;;;5090739;28;20649;-85
2023/02/18 13:01:51;;;;;;;1.43;1.00;;;10.60;99.90;;;;;;5098629;28;20206;-88
2023/02/18 13:04:56;;;;;;;1.20;1.10;;;10.60;99.90;;;;;;5101334;28;20198;-86
2023/02/18 13:07:48;;;;;;;1.23;1.00;;;10.60;99.90;;;;;;5019147;28;20287;-88
2023/02/18 13:10:36;;;;;;;0.70;0.70;;;10.70;99.90;;;;;;5002287;28;20220;-86